Buffalo, Nebraska
Current Conditions -  °F | °C
As of 3:53 PM on Friday 24 Oct 2014 (Local Time) from KHSI Reporting Station
Clear Clear  
Wind Chill: 78°   Ceiling: Unl
Heat Index: 78°   Visibility: 10mi
Dew Point: 45°   Wind: 7mph
Humidity: 31%   Direction: 260°W
Pressure: 29.94"   Gusts: NA
Location:  40.3066°N, 98.7833°W
Report Text: KHSI 242053Z AUTO 26006KT 10SM CLR 26/07 A2994 RMK AO2 SLP126 T02560072 56011
Loading
Personal Weather Stations






























Interactive Weather Map
Tropical Storm Tracking
New forecast layout! Learn more

10-Day Weather Forecast

Advertisements
Track Severe Weather on mobile